Time;durP1;ratioP1;P1;durP2;ratioP2;P2;SDS_P1;SDS_P2;PMS_P1;PMS_P2;Temp;Humidity;BMP_temperature;BMP_pressure;BME280_temperature;BME280_humidity;BME280_pressure;Samples;Min_cycle;Max_cycle;Signal;HPM_P1;HPM_P2
2023/08/20 00:02:09;;;;;;;8.95;7.55;;;24.10;99.90;;;;;;5057216;28;20172;-67
2023/08/20 00:04:38;;;;;;;10.52;9.20;;;24.10;99.90;;;;;;5057804;28;20176;-68
2023/08/20 00:07:04;;;;;;;13.18;8.73;;;24.10;99.90;;;;;;5056988;28;20208;-68
2023/08/20 00:09:30;;;;;;;10.20;7.85;;;24.00;99.90;;;;;;5058039;28;20233;-67
2023/08/20 00:11:59;;;;;;;8.90;7.72;;;24.00;99.90;;;;;;5057542;28;20185;-68
2023/08/20 00:15:06;;;;;;;9.07;7.28;;;23.90;99.90;;;;;;5056292;28;20510;-70
2023/08/20 00:17:40;;;;;;;9.82;7.18;;;23.90;99.90;;;;;;5053952;28;20180;-69
2023/08/20 00:20:16;;;;;;;7.03;6.25;;;23.90;99.90;;;;;;5037008;28;20200;-68
2023/08/20 00:22:43;;;;;;;7.38;6.03;;;23.90;99.90;;;;;;5037511;28;20231;-68
2023/08/20 00:25:12;;;;;;;6.80;6.20;;;23.80;99.90;;;;;;5037725;28;20476;-68
2023/08/20 00:27:42;;;;;;;8.48;6.60;;;23.80;99.90;;;;;;5037387;28;20216;-67
2023/08/20 00:30:11;;;;;;;7.60;6.05;;;23.80;99.90;;;;;;5037731;28;20180;-68
2023/08/20 00:32:37;;;;;;;6.97;6.28;;;23.70;99.90;;;;;;5057349;28;20179;-68
2023/08/20 00:35:04;;;;;;;8.48;5.93;;;23.70;99.90;;;;;;5056492;28;20193;-67
2023/08/20 00:37:33;;;;;;;7.50;6.30;;;23.70;99.90;;;;;;5057273;28;20238;-68
2023/08/20 00:39:59;;;;;;;7.25;6.47;;;23.70;99.90;;;;;;5056395;28;20176;-68
2023/08/20 00:42:27;;;;;;;7.45;6.03;;;23.70;99.90;;;;;;5056447;28;20191;-65
2023/08/20 00:44:55;;;;;;;7.13;6.07;;;23.70;99.90;;;;;;5055274;28;20237;-68
2023/08/20 00:47:21;;;;;;;8.40;6.07;;;23.60;99.90;;;;;;5057255;28;20272;-68
2023/08/20 00:49:48;;;;;;;8.70;6.45;;;23.60;99.90;;;;;;5062993;28;20216;-68
2023/08/20 00:52:18;;;;;;;7.38;6.20;;;23.60;99.90;;;;;;5052799;28;20235;-68
2023/08/20 00:54:50;;;;;;;8.13;6.25;;;23.60;99.90;;;;;;5050483;28;20192;-68
2023/08/20 00:57:20;;;;;;;6.75;5.97;;;23.60;99.90;;;;;;5043492;28;20173;-68
2023/08/20 00:59:53;;;;;;;6.22;5.60;;;23.50;99.90;;;;;;5057172;28;20188;-66
2023/08/20 01:02:21;;;;;;;7.50;5.28;;;23.50;99.90;;;;;;5056622;28;20201;-68
2023/08/20 01:04:50;;;;;;;6.75;6.13;;;23.40;99.90;;;;;;5053781;28;20191;-68
2023/08/20 01:07:21;;;;;;;6.75;6.07;;;23.40;99.90;;;;;;5056546;28;20196;-67
2023/08/20 01:09:50;;;;;;;6.68;5.97;;;23.40;99.90;;;;;;5056696;28;20193;-68
2023/08/20 01:12:19;;;;;;;8.20;5.70;;;23.40;99.90;;;;;;5056586;28;20226;-68
2023/08/20 01:14:48;;;;;;;6.65;5.97;;;23.40;99.90;;;;;;5038022;28;20205;-68
2023/08/20 01:17:13;;;;;;;7.10;6.18;;;23.40;99.90;;;;;;5037415;28;20173;-68
2023/08/20 01:19:39;;;;;;;7.05;6.25;;;23.40;99.90;;;;;;5053496;28;20219;-68
2023/08/20 01:22:20;;;;;;;6.60;5.90;;;23.40;99.90;;;;;;5050735;28;20268;-67
2023/08/20 01:24:57;;;;;;;6.32;5.63;;;23.30;99.90;;;;;;5036937;28;20184;-68
2023/08/20 01:27:32;;;;;;;6.68;5.63;;;23.30;99.90;;;;;;5052236;28;20282;-66
2023/08/20 01:30:03;;;;;;;6.55;5.93;;;23.30;99.90;;;;;;5056647;28;20188;-68
2023/08/20 01:32:28;;;;;;;5.85;5.25;;;23.30;99.90;;;;;;5057177;28;20169;-67
2023/08/20 01:34:57;;;;;;;7.07;5.80;;;23.30;99.90;;;;;;5060305;28;20196;-68
2023/08/20 01:37:22;;;;;;;7.03;6.20;;;23.20;99.90;;;;;;5060122;28;20200;-68
2023/08/20 01:39:48;;;;;;;8.27;6.60;;;23.20;99.90;;;;;;5059876;28;20196;-67
2023/08/20 01:42:14;;;;;;;7.50;6.43;;;23.10;99.90;;;;;;5060353;28;20172;-68
2023/08/20 01:44:42;;;;;;;6.82;6.13;;;23.10;99.90;;;;;;5058498;28;20188;-67
2023/08/20 01:47:09;;;;;;;8.05;6.72;;;23.10;99.90;;;;;;5069930;28;20221;-68
2023/08/20 01:49:35;;;;;;;7.78;5.85;;;23.10;99.90;;;;;;5060986;28;20287;-68
2023/08/20 01:52:03;;;;;;;6.07;5.47;;;23.10;99.90;;;;;;5063216;28;20265;-68
2023/08/20 01:54:30;;;;;;;6.28;5.68;;;23.10;99.90;;;;;;5071943;28;20179;-68
2023/08/20 01:56:55;;;;;;;6.60;5.47;;;23.10;99.90;;;;;;5059064;28;20196;-68
2023/08/20 01:59:23;;;;;;;8.70;6.03;;;23.00;99.90;;;;;;5062686;28;20181;-66
2023/08/20 02:01:49;;;;;;;6.72;5.63;;;23.10;99.90;;;;;;5059973;28;20207;-68
2023/08/20 02:04:15;;;;;;;7.97;5.93;;;23.10;99.90;;;;;;5059075;28;20423;-69
2023/08/20 02:06:45;;;;;;;6.20;5.60;;;23.10;99.90;;;;;;5060944;28;20200;-68
2023/08/20 02:09:13;;;;;;;5.80;5.13;;;23.10;99.90;;;;;;5057883;28;20402;-68
2023/08/20 02:11:38;;;;;;;6.35;5.60;;;23.00;99.90;;;;;;5058193;28;20231;-68
2023/08/20 02:14:06;;;;;;;6.47;5.65;;;23.00;99.90;;;;;;5058299;28;20200;-68
2023/08/20 02:16:32;;;;;;;7.38;5.53;;;23.00;99.90;;;;;;5058966;28;20180;-68
2023/08/20 02:18:58;;;;;;;6.45;5.50;;;23.00;99.90;;;;;;5058836;28;20172;-69
2023/08/20 02:21:23;;;;;;;6.00;5.47;;;23.00;99.90;;;;;;5059127;28;20181;-68
2023/08/20 02:23:49;;;;;;;7.60;6.40;;;23.00;99.90;;;;;;5058563;28;20222;-68
2023/08/20 02:26:15;;;;;;;7.38;6.30;;;23.00;99.90;;;;;;5075428;28;20194;-68
2023/08/20 02:28:40;;;;;;;6.60;5.68;;;22.90;99.90;;;;;;5056430;28;20183;-68
2023/08/20 02:31:08;;;;;;;5.55;5.03;;;22.90;99.90;;;;;;5059040;28;20254;-68
2023/08/20 02:33:38;;;;;;;6.72;5.55;;;22.90;99.90;;;;;;5055945;28;20173;-68
2023/08/20 02:36:04;;;;;;;6.20;5.57;;;22.90;99.90;;;;;;5055561;28;20166;-67
2023/08/20 02:38:35;;;;;;;6.28;5.68;;;22.80;99.90;;;;;;5076914;28;20265;-68
2023/08/20 02:41:02;;;;;;;6.18;5.57;;;22.80;99.90;;;;;;5076614;28;20185;-68
2023/08/20 02:43:30;;;;;;;7.22;5.88;;;22.70;99.90;;;;;;5058144;28;20201;-68
2023/08/20 02:45:56;;;;;;;7.00;6.30;;;22.70;99.90;;;;;;5058228;28;20203;-68
2023/08/20 02:48:26;;;;;;;6.75;5.75;;;22.70;99.90;;;;;;5057329;28;20277;-68
2023/08/20 02:50:59;;;;;;;6.03;5.35;;;22.70;99.90;;;;;;5051235;28;20240;-67
2023/08/20 02:53:27;;;;;;;6.10;5.50;;;22.70;99.90;;;;;;5059445;28;20252;-68
2023/08/20 02:55:53;;;;;;;5.97;5.38;;;22.60;99.90;;;;;;5058019;28;20537;-68
2023/08/20 02:58:21;;;;;;;5.80;5.20;;;22.60;99.90;;;;;;5058612;28;20177;-67
2023/08/20 03:00:46;;;;;;;6.15;5.32;;;22.60;99.90;;;;;;5058387;28;20294;-68
2023/08/20 03:03:14;;;;;;;6.82;5.30;;;22.60;99.90;;;;;;5058791;28;20184;-68
2023/08/20 03:05:40;;;;;;;6.10;5.43;;;22.60;99.90;;;;;;5055721;28;20196;-68
2023/08/20 03:08:09;;;;;;;8.45;5.35;;;22.60;99.90;;;;;;5058369;28;20196;-68
2023/08/20 03:10:39;;;;;;;5.68;5.10;;;22.60;99.90;;;;;;5057120;28;20238;-67
2023/08/20 03:13:05;;;;;;;5.80;5.25;;;22.60;99.90;;;;;;5051584;28;20195;-66
2023/08/20 03:15:31;;;;;;;7.40;5.30;;;22.60;99.90;;;;;;5056140;28;20267;-68
2023/08/20 03:17:57;;;;;;;6.07;5.43;;;22.60;99.90;;;;;;5059280;28;20181;-68
2023/08/20 03:20:23;;;;;;;6.40;5.80;;;22.60;99.90;;;;;;5057865;28;20205;-68
2023/08/20 03:22:48;;;;;;;6.00;4.95;;;22.50;99.90;;;;;;5067071;28;20256;-67
2023/08/20 03:25:18;;;;;;;6.30;5.32;;;22.50;99.90;;;;;;5056528;28;20192;-67
2023/08/20 03:27:46;;;;;;;6.90;5.80;;;22.50;99.90;;;;;;5069252;28;20183;-67
2023/08/20 03:30:12;;;;;;;6.03;5.43;;;22.50;99.90;;;;;;5070618;28;20189;-68
2023/08/20 03:32:42;;;;;;;6.38;5.78;;;22.50;99.90;;;;;;5057696;28;20180;-67
2023/08/20 03:35:10;;;;;;;5.18;4.68;;;22.40;99.90;;;;;;5057729;28;20172;-67
2023/08/20 03:37:38;;;;;;;7.40;5.28;;;22.40;99.90;;;;;;5057383;28;20388;-67
2023/08/20 03:40:09;;;;;;;7.28;6.00;;;22.40;99.90;;;;;;5056922;28;20193;-67
2023/08/20 03:42:39;;;;;;;6.57;5.60;;;22.40;99.90;;;;;;5057244;28;20177;-67
2023/08/20 03:45:05;;;;;;;6.18;4.95;;;22.30;99.90;;;;;;5057591;28;20214;-68
2023/08/20 03:47:31;;;;;;;5.88;5.20;;;22.30;99.90;;;;;;5057240;28;20224;-67
2023/08/20 03:49:57;;;;;;;6.32;5.60;;;22.30;99.90;;;;;;5056706;28;20202;-68
2023/08/20 03:52:24;;;;;;;6.80;5.70;;;22.30;99.90;;;;;;5057106;28;20184;-69
2023/08/20 03:54:50;;;;;;;9.02;5.32;;;22.20;99.90;;;;;;5054918;28;20193;-69
2023/08/20 03:57:18;;;;;;;5.90;5.30;;;22.20;99.90;;;;;;5067641;28;20241;-68
2023/08/20 03:59:49;;;;;;;5.82;5.22;;;22.20;99.90;;;;;;5057084;28;20176;-69
2023/08/20 04:02:17;;;;;;;5.88;5.28;;;22.20;99.90;;;;;;5046360;28;20204;-68
2023/08/20 04:04:42;;;;;;;6.47;5.50;;;22.10;99.90;;;;;;5056204;28;20173;-68
2023/08/20 04:07:08;;;;;;;7.90;5.28;;;22.10;99.90;;;;;;5071945;28;20261;-78
2023/08/20 04:09:36;;;;;;;6.88;5.32;;;22.10;99.90;;;;;;5047905;28;20213;-78
2023/08/20 04:12:04;;;;;;;6.28;5.43;;;22.00;99.90;;;;;;5054284;28;20339;-79
2023/08/20 04:14:30;;;;;;;8.52;5.75;;;22.00;99.90;;;;;;5056256;28;20201;-80
2023/08/20 04:16:56;;;;;;;6.30;5.57;;;22.00;99.90;;;;;;5057835;28;20222;-79
2023/08/20 04:19:23;;;;;;;5.88;5.28;;;22.00;99.90;;;;;;5056701;28;20183;-74
2023/08/20 04:21:50;;;;;;;5.72;5.15;;;22.00;99.90;;;;;;5067655;28;20197;-79
2023/08/20 04:24:15;;;;;;;5.88;5.28;;;22.00;99.90;;;;;;5074393;28;20177;-79
2023/08/20 04:26:41;;;;;;;5.72;5.18;;;22.10;99.90;;;;;;5057320;28;20208;-77
2023/08/20 04:29:06;;;;;;;6.55;5.30;;;22.10;99.90;;;;;;5056842;28;20201;-79
2023/08/20 04:31:32;;;;;;;5.40;4.80;;;22.10;99.90;;;;;;5060550;28;20180;-80
2023/08/20 04:33:58;;;;;;;6.00;5.40;;;22.10;99.90;;;;;;5054531;28;20178;-80
2023/08/20 04:36:23;;;;;;;5.80;5.15;;;22.10;99.90;;;;;;5055263;28;20204;-80
2023/08/20 04:38:49;;;;;;;5.75;4.85;;;22.10;99.90;;;;;;5057619;28;20165;-78
2023/08/20 04:41:14;;;;;;;8.88;5.18;;;22.10;99.90;;;;;;5074165;28;20175;-80
2023/08/20 04:43:42;;;;;;;5.80;5.20;;;22.20;99.90;;;;;;5061328;28;20169;-78
2023/08/20 04:46:08;;;;;;;5.85;5.25;;;22.20;99.90;;;;;;5066320;28;20240;-78
2023/08/20 04:48:34;;;;;;;6.57;5.72;;;22.10;99.90;;;;;;5057490;28;20291;-80
2023/08/20 04:51:04;;;;;;;6.68;6.00;;;22.20;99.90;;;;;;5057963;28;20224;-79
2023/08/20 04:53:32;;;;;;;7.60;5.85;;;22.10;99.90;;;;;;5059082;28;20176;-71
2023/08/20 04:55:58;;;;;;;7.55;6.22;;;22.10;99.90;;;;;;5061681;28;20180;-70
2023/08/20 04:58:26;;;;;;;8.07;6.07;;;22.10;99.90;;;;;;5053485;28;20178;-77
2023/08/20 05:00:54;;;;;;;8.02;6.00;;;22.10;99.90;;;;;;5056297;28;20184;-76
2023/08/20 05:03:20;;;;;;;5.93;5.40;;;22.10;99.90;;;;;;5085156;28;20183;-70
2023/08/20 05:05:52;;;;;;;5.90;5.38;;;22.10;99.90;;;;;;5089476;28;20177;-64
2023/08/20 05:08:20;;;;;;;5.75;5.15;;;22.10;99.90;;;;;;5090760;28;20189;-72
2023/08/20 05:10:45;;;;;;;6.43;5.53;;;22.10;99.90;;;;;;5074281;28;20264;-73
2023/08/20 05:13:11;;;;;;;6.43;5.40;;;22.00;99.90;;;;;;5062457;28;20199;-72
2023/08/20 05:15:36;;;;;;;6.40;5.22;;;22.10;99.90;;;;;;5075457;28;20180;-80
2023/08/20 05:18:04;;;;;;;7.47;5.43;;;22.10;99.90;;;;;;5062555;28;20254;-80
2023/08/20 05:20:30;;;;;;;5.63;4.97;;;22.10;99.90;;;;;;5059771;28;20260;-80
2023/08/20 05:22:58;;;;;;;6.03;5.00;;;22.10;99.90;;;;;;5067560;28;20215;-78
2023/08/20 05:25:24;;;;;;;5.80;5.20;;;22.20;99.90;;;;;;5061804;28;20169;-80
2023/08/20 05:27:52;;;;;;;5.68;5.18;;;22.10;99.90;;;;;;5060596;28;20277;-80
2023/08/20 05:30:17;;;;;;;9.75;5.53;;;22.20;99.90;;;;;;5065768;28;20173;-80
2023/08/20 05:32:43;;;;;;;5.50;4.93;;;22.20;99.90;;;;;;5063338;28;20164;-80
2023/08/20 05:35:09;;;;;;;6.15;5.43;;;22.20;99.90;;;;;;5059586;28;20173;-80
2023/08/20 05:37:35;;;;;;;7.47;5.07;;;22.20;99.90;;;;;;5071854;28;20208;-77
2023/08/20 05:40:00;;;;;;;6.10;5.03;;;22.30;99.90;;;;;;5064914;28;20187;-80
2023/08/20 05:42:26;;;;;;;5.70;5.10;;;22.30;99.90;;;;;;5062207;28;20189;-80
2023/08/20 05:44:54;;;;;;;7.78;5.65;;;22.30;99.90;;;;;;5060743;28;20188;-77
2023/08/20 05:47:22;;;;;;;7.50;5.43;;;22.30;99.90;;;;;;5062150;28;20207;-80
2023/08/20 05:49:47;;;;;;;6.47;5.32;;;22.30;99.90;;;;;;5061603;28;20246;-80
2023/08/20 05:52:13;;;;;;;7.20;5.93;;;22.40;99.90;;;;;;5060346;28;20192;-80
2023/08/20 05:54:38;;;;;;;7.80;5.10;;;22.40;99.90;;;;;;5060040;28;20207;-79
2023/08/20 05:57:04;;;;;;;5.97;5.13;;;22.40;99.90;;;;;;5042236;28;20177;-81
2023/08/20 05:59:30;;;;;;;5.95;5.43;;;22.40;99.90;;;;;;5050592;28;20270;-77
2023/08/20 06:01:55;;;;;;;5.30;4.80;;;22.50;99.90;;;;;;5042429;28;20188;-80
2023/08/20 06:04:21;;;;;;;6.25;5.38;;;22.50;99.90;;;;;;5059325;28;20447;-78
2023/08/20 06:06:49;;;;;;;6.00;5.43;;;22.60;99.90;;;;;;5045161;28;20292;-76
2023/08/20 06:09:19;;;;;;;5.78;5.28;;;22.60;99.90;;;;;;5057061;28;20177;-80
2023/08/20 06:11:45;;;;;;;6.13;5.53;;;22.70;99.90;;;;;;5058533;28;20253;-79
2023/08/20 06:14:11;;;;;;;6.32;5.28;;;22.70;99.90;;;;;;5060823;28;20176;-82
2023/08/20 06:16:36;;;;;;;5.28;4.78;;;22.80;99.90;;;;;;5064545;28;20172;-80
2023/08/20 06:19:02;;;;;;;6.00;5.05;;;22.90;99.90;;;;;;5066571;28;20192;-80
2023/08/20 06:21:28;;;;;;;5.45;4.88;;;22.90;99.90;;;;;;5058776;28;20173;-80
2023/08/20 06:23:53;;;;;;;5.60;5.00;;;23.00;99.90;;;;;;5051931;28;20219;-81
2023/08/20 06:26:21;;;;;;;8.82;7.93;;;23.00;99.90;;;;;;5066937;28;20192;-80
2023/08/20 06:28:47;;;;;;;7.38;6.50;;;23.00;99.90;;;;;;5067979;28;20268;-80
2023/08/20 06:31:13;;;;;;;8.98;8.07;;;23.10;99.90;;;;;;5059204;28;20219;-80
2023/08/20 06:33:38;;;;;;;8.07;6.35;;;23.10;99.90;;;;;;5057726;28;20600;-81
2023/08/20 06:36:07;;;;;;;7.53;5.95;;;23.10;99.90;;;;;;5059098;28;20172;-78
2023/08/20 06:38:32;;;;;;;9.05;6.63;;;23.10;99.90;;;;;;5059325;28;20238;-81
2023/08/20 06:40:58;;;;;;;7.85;6.85;;;23.20;99.90;;;;;;5056739;28;20197;-79
2023/08/20 06:43:23;;;;;;;9.38;6.72;;;23.20;99.90;;;;;;5058840;28;20257;-76
2023/08/20 06:45:54;;;;;;;8.45;7.40;;;23.20;99.90;;;;;;5058400;28;20242;-74
2023/08/20 06:48:21;;;;;;;8.93;7.55;;;23.20;99.90;;;;;;5056147;28;20208;-80
2023/08/20 06:50:47;;;;;;;9.73;7.72;;;23.20;99.90;;;;;;5041631;28;20173;-80
2023/08/20 06:53:15;;;;;;;9.80;8.60;;;23.20;99.90;;;;;;5068796;28;20222;-79
2023/08/20 06:55:41;;;;;;;10.70;8.20;;;23.30;99.90;;;;;;5058886;28;20169;-80
2023/08/20 06:58:06;;;;;;;10.07;8.57;;;23.30;99.90;;;;;;5058740;28;20191;-78
2023/08/20 07:00:32;;;;;;;9.63;8.40;;;23.30;99.90;;;;;;5064086;28;20203;-80
2023/08/20 07:03:00;;;;;;;9.25;8.20;;;23.30;99.90;;;;;;5067688;28;20181;-74
2023/08/20 07:05:25;;;;;;;10.23;7.90;;;23.40;99.90;;;;;;5064381;28;20196;-79
2023/08/20 07:07:53;;;;;;;10.75;9.25;;;23.40;99.90;;;;;;5049226;28;20204;-77
2023/08/20 07:10:21;;;;;;;9.27;7.32;;;23.40;99.90;;;;;;5050116;28;20181;-75
2023/08/20 07:12:49;;;;;;;7.88;6.78;;;23.40;99.90;;;;;;5058144;28;20194;-78
2023/08/20 07:15:15;;;;;;;8.57;6.70;;;23.50;99.90;;;;;;5058129;28;20176;-78
2023/08/20 07:17:41;;;;;;;8.75;7.82;;;23.50;99.90;;;;;;5057804;28;20276;-74
2023/08/20 07:20:07;;;;;;;8.45;7.35;;;23.60;99.90;;;;;;5058783;28;20263;-74
2023/08/20 07:22:35;;;;;;;9.50;7.75;;;23.60;99.90;;;;;;5058140;28;20189;-77
2023/08/20 07:25:05;;;;;;;8.43;7.30;;;23.60;99.90;;;;;;5053318;28;20169;-69
2023/08/20 07:27:36;;;;;;;10.25;7.32;;;23.70;99.90;;;;;;5051718;28;20212;-77
2023/08/20 07:30:02;;;;;;;8.00;6.78;;;23.70;99.90;;;;;;5073230;28;20522;-76
2023/08/20 07:32:28;;;;;;;7.82;6.95;;;23.80;99.90;;;;;;5061438;28;20180;-78
2023/08/20 07:34:53;;;;;;;8.18;6.95;;;23.90;99.90;;;;;;5062445;28;20173;-78
2023/08/20 07:37:21;;;;;;;8.73;7.35;;;23.90;99.90;;;;;;5054737;28;20199;-77
2023/08/20 07:39:47;;;;;;;8.90;7.20;;;23.90;99.90;;;;;;5057330;28;20185;-78
2023/08/20 07:42:14;;;;;;;9.50;7.18;;;24.00;99.90;;;;;;5057905;28;20187;-76
2023/08/20 07:44:42;;;;;;;8.68;7.78;;;24.00;99.90;;;;;;5056705;28;20256;-73
2023/08/20 07:47:10;;;;;;;9.00;7.38;;;24.10;99.90;;;;;;5053857;28;20292;-78
2023/08/20 07:49:36;;;;;;;9.68;7.68;;;24.10;99.90;;;;;;5056190;28;20174;-77
2023/08/20 07:52:04;;;;;;;8.25;7.38;;;24.20;99.90;;;;;;5054167;28;20215;-79
2023/08/20 07:54:29;;;;;;;7.70;6.80;;;24.30;99.90;;;;;;5044666;28;20172;-79
2023/08/20 07:56:55;;;;;;;8.90;6.38;;;24.30;99.90;;;;;;5057356;28;20172;-77
2023/08/20 07:59:21;;;;;;;8.65;7.05;;;24.30;99.90;;;;;;5069136;28;20200;-78
2023/08/20 08:01:51;;;;;;;10.13;7.15;;;24.40;99.90;;;;;;5054402;28;20208;-78
2023/08/20 08:04:16;;;;;;;8.77;6.70;;;24.50;99.90;;;;;;5057231;28;20180;-77
2023/08/20 08:06:42;;;;;;;7.53;6.72;;;24.50;99.90;;;;;;5057668;28;20211;-77
2023/08/20 08:09:20;;;;;;;7.82;6.63;;;24.60;99.90;;;;;;5057599;28;20172;-79
2023/08/20 08:11:46;;;;;;;7.03;6.07;;;24.60;99.90;;;;;;5057311;28;20168;-74
2023/08/20 08:14:11;;;;;;;8.52;6.82;;;24.70;99.90;;;;;;5057172;28;20195;-77
2023/08/20 08:16:37;;;;;;;7.72;6.97;;;24.80;99.90;;;;;;5074462;28;20176;-76
2023/08/20 08:19:03;;;;;;;8.18;6.97;;;24.80;99.90;;;;;;5056546;28;20250;-77
2023/08/20 08:21:28;;;;;;;8.05;6.72;;;24.90;99.90;;;;;;5053690;28;20268;-76
2023/08/20 08:23:56;;;;;;;8.02;6.50;;;25.00;99.90;;;;;;5047962;28;20177;-78
2023/08/20 08:26:22;;;;;;;8.13;7.15;;;25.00;99.90;;;;;;5069763;28;20191;-75
2023/08/20 08:28:50;;;;;;;7.72;6.93;;;25.10;99.90;;;;;;5051810;28;20192;-78
2023/08/20 08:31:18;;;;;;;9.35;8.02;;;25.20;99.90;;;;;;5048871;28;20195;-77
2023/08/20 08:33:43;;;;;;;9.13;8.15;;;25.20;99.90;;;;;;5087093;28;20177;-74
2023/08/20 08:36:09;;;;;;;8.10;7.18;;;25.30;99.90;;;;;;5056349;28;20239;-76
2023/08/20 08:38:36;;;;;;;6.80;6.10;;;25.40;99.90;;;;;;5043928;28;20201;-73
2023/08/20 08:41:06;;;;;;;8.95;6.18;;;25.40;99.90;;;;;;5052763;28;20259;-76
2023/08/20 08:43:32;;;;;;;6.95;6.00;;;25.50;99.90;;;;;;5057723;28;20219;-75
2023/08/20 08:46:00;;;;;;;6.30;5.70;;;25.60;99.90;;;;;;5061162;28;20177;-76
2023/08/20 08:48:30;;;;;;;7.13;5.43;;;25.60;99.90;;;;;;5068196;28;20208;-78
2023/08/20 08:50:56;;;;;;;5.80;5.25;;;25.70;99.90;;;;;;5061761;28;20196;-78
2023/08/20 08:53:24;;;;;;;5.22;4.72;;;25.80;99.90;;;;;;5064236;28;20282;-75
2023/08/20 08:55:50;;;;;;;7.70;4.95;;;25.80;99.90;;;;;;5061175;28;20169;-77
2023/08/20 08:58:18;;;;;;;10.57;9.48;;;25.90;99.90;;;;;;5062889;28;20253;-80
2023/08/20 09:00:44;;;;;;;7.50;6.70;;;26.00;99.90;;;;;;5060583;28;20177;-78
2023/08/20 09:03:09;;;;;;;5.35;4.85;;;26.10;99.90;;;;;;5043214;28;20177;-77
2023/08/20 09:05:48;;;;;;;5.35;4.50;;;26.20;99.90;;;;;;5041055;28;20178;-78
2023/08/20 09:08:28;;;;;;;5.28;4.22;;;26.20;99.90;;;;;;5058634;28;20188;-78
2023/08/20 09:10:55;;;;;;;4.65;4.25;;;26.30;99.90;;;;;;5064019;28;20224;-82
2023/08/20 09:13:25;;;;;;;4.78;4.25;;;26.40;99.90;;;;;;5061471;28;20176;-76
2023/08/20 09:15:56;;;;;;;4.90;4.40;;;26.50;99.90;;;;;;5061479;28;20259;-71
2023/08/20 09:18:26;;;;;;;4.50;3.97;;;26.50;99.90;;;;;;5064185;28;20199;-75
2023/08/20 09:20:52;;;;;;;4.68;4.25;;;26.60;99.90;;;;;;5069389;28;20181;-74
2023/08/20 09:23:20;;;;;;;5.18;4.53;;;26.70;99.90;;;;;;5041241;28;20193;-71
2023/08/20 09:25:47;;;;;;;5.35;4.03;;;26.70;99.90;;;;;;5043616;28;20542;-72
2023/08/20 09:28:14;;;;;;;4.40;4.00;;;26.80;99.90;;;;;;5060282;28;20257;-75
2023/08/20 09:30:56;;;;;;;4.50;4.07;;;26.90;99.90;;;;;;5077514;28;20259;-77
2023/08/20 09:33:27;;;;;;;4.55;4.13;;;27.00;99.90;;;;;;5080721;28;20226;-72
2023/08/20 09:35:53;;;;;;;4.55;3.95;;;27.00;99.90;;;;;;5068929;28;20204;-76
2023/08/20 09:38:21;;;;;;;5.07;4.28;;;27.10;99.90;;;;;;5060414;28;20231;-75
2023/08/20 09:40:58;;;;;;;5.85;4.53;;;27.20;99.90;;;;;;5059393;28;20248;-75
2023/08/20 09:43:29;;;;;;;3.78;3.47;;;27.30;99.90;;;;;;5058166;28;20224;-82
2023/08/20 09:45:59;;;;;;;4.90;3.83;;;27.40;99.90;;;;;;5056059;28;20188;-75
2023/08/20 09:48:32;;;;;;;3.78;3.40;;;27.40;99.90;;;;;;5063126;28;20279;-74
2023/08/20 09:51:01;;;;;;;4.28;3.88;;;27.50;99.90;;;;;;5060538;28;20164;-74
2023/08/20 09:53:28;;;;;;;4.30;3.70;;;27.60;99.90;;;;;;5049063;28;20169;-73
2023/08/20 09:55:59;;;;;;;4.07;3.70;;;27.80;99.90;;;;;;5066165;28;20215;-75
2023/08/20 09:58:26;;;;;;;4.30;3.90;;;27.90;99.90;;;;;;5061763;28;20425;-74
2023/08/20 10:00:55;;;;;;;6.13;4.35;;;28.00;99.90;;;;;;5058776;28;20181;-74
2023/08/20 10:03:24;;;;;;;4.60;4.07;;;28.10;99.90;;;;;;5072128;28;20196;-74
2023/08/20 10:05:50;;;;;;;3.75;3.42;;;28.20;99.90;;;;;;5056030;28;20184;-74
2023/08/20 10:08:19;;;;;;;4.03;3.72;;;28.30;99.90;;;;;;5072310;28;20209;-74
2023/08/20 10:10:45;;;;;;;4.18;3.78;;;28.40;99.90;;;;;;5046574;28;20173;-73
2023/08/20 10:13:13;;;;;;;3.85;3.45;;;28.50;99.90;;;;;;5047373;28;20168;-75
2023/08/20 10:15:39;;;;;;;4.15;3.75;;;28.80;99.90;;;;;;5067573;28;20207;-75
2023/08/20 10:18:07;;;;;;;4.00;3.60;;;29.20;99.90;;;;;;5059006;28;20172;-75
2023/08/20 10:20:32;;;;;;;4.30;3.90;;;29.60;99.90;;;;;;5056485;28;20181;-73
2023/08/20 10:23:03;;;;;;;4.72;3.90;;;30.20;99.90;;;;;;5079025;28;20182;-76
2023/08/20 10:25:30;;;;;;;4.05;3.65;;;30.60;99.90;;;;;;5060276;28;20176;-74
2023/08/20 10:28:13;;;;;;;4.60;4.10;;;31.00;99.90;;;;;;5060336;28;20241;-74
2023/08/20 10:30:41;;;;;;;5.53;5.03;;;31.40;99.90;;;;;;5066351;28;20229;-75
2023/08/20 10:33:08;;;;;;;4.90;4.40;;;31.60;99.90;;;;;;5075697;28;20176;-73
2023/08/20 10:35:40;;;;;;;5.15;4.38;;;31.80;99.90;;;;;;5064636;28;20182;-75
2023/08/20 10:38:15;;;;;;;5.15;4.10;;;32.00;99.90;;;;;;5055018;28;20168;-72
2023/08/20 10:40:58;;;;;;;4.60;3.92;;;32.20;99.90;;;;;;5062915;28;20244;-74
2023/08/20 10:43:45;;;;;;;4.75;4.22;;;32.50;99.90;;;;;;5060358;28;20180;-76
2023/08/20 10:46:21;;;;;;;4.25;3.72;;;32.80;99.90;;;;;;5055926;28;20219;-80
2023/08/20 10:48:56;;;;;;;4.18;3.78;;;33.10;99.90;;;;;;5076572;28;20213;-73
2023/08/20 10:51:36;;;;;;;4.30;3.67;;;33.30;99.90;;;;;;5067056;28;20171;-72
2023/08/20 10:54:05;;;;;;;4.53;4.13;;;33.50;99.90;;;;;;5042892;28;20188;-74
2023/08/20 10:56:51;;;;;;;3.85;3.55;;;33.60;99.90;;;;;;5075466;28;20240;-78
2023/08/20 10:59:29;;;;;;;4.90;4.40;;;33.80;99.90;;;;;;5079199;28;20155;-72
2023/08/20 11:02:00;;;;;;;4.60;4.00;;;34.00;99.90;;;;;;5078967;28;20173;-72
2023/08/20 11:04:29;;;;;;;4.30;3.60;;;34.20;99.90;;;;;;5078450;28;20159;-70
2023/08/20 11:06:56;;;;;;;4.05;3.65;;;34.20;99.90;;;;;;5075941;28;20210;-70
2023/08/20 11:09:27;;;;;;;4.30;3.90;;;34.30;99.90;;;;;;5065544;28;20237;-70
2023/08/20 11:11:53;;;;;;;4.57;4.18;;;34.10;99.90;;;;;;5067993;28;20262;-70
2023/08/20 11:14:22;;;;;;;5.00;4.50;;;33.80;99.90;;;;;;5058733;28;20176;-69
2023/08/20 11:16:48;;;;;;;4.38;3.80;;;33.40;99.90;;;;;;5064391;28;20262;-69
2023/08/20 11:19:17;;;;;;;4.57;4.05;;;33.00;99.90;;;;;;5052441;28;20172;-71
2023/08/20 11:21:45;;;;;;;4.45;4.05;;;32.70;99.90;;;;;;5060433;28;20176;-70
2023/08/20 11:24:14;;;;;;;4.63;3.97;;;32.40;99.90;;;;;;5063739;28;20210;-70
2023/08/20 11:26:41;;;;;;;4.13;3.72;;;32.30;99.90;;;;;;5058192;28;20253;-70
2023/08/20 11:29:14;;;;;;;4.15;3.75;;;32.20;99.90;;;;;;5068703;28;20186;-69
2023/08/20 11:31:41;;;;;;;4.40;4.00;;;32.10;99.90;;;;;;5070000;28;20206;-69
2023/08/20 11:34:11;;;;;;;4.28;3.88;;;32.10;99.90;;;;;;5055369;28;20215;-69
2023/08/20 11:36:39;;;;;;;5.00;4.50;;;32.00;99.90;;;;;;5071009;28;20179;-69
2023/08/20 11:39:05;;;;;;;4.85;4.30;;;31.90;99.90;;;;;;5041089;28;20291;-68
2023/08/20 11:41:31;;;;;;;5.57;4.53;;;31.80;99.90;;;;;;5038031;28;20259;-70
2023/08/20 11:43:56;;;;;;;4.68;4.03;;;31.80;99.90;;;;;;5041238;28;20171;-70
2023/08/20 11:46:26;;;;;;;4.72;4.25;;;31.90;99.90;;;;;;5057825;28;20517;-70
2023/08/20 11:49:03;;;;;;;4.93;4.43;;;31.80;99.90;;;;;;5074384;28;20199;-70
2023/08/20 11:51:49;;;;;;;6.45;4.55;;;31.80;99.90;;;;;;5054217;28;20286;-68
2023/08/20 11:54:17;;;;;;;4.70;4.30;;;31.80;99.90;;;;;;5046217;28;20226;-70
2023/08/20 11:56:46;;;;;;;4.55;4.15;;;31.80;99.90;;;;;;5054141;28;20180;-70
2023/08/20 11:59:12;;;;;;;4.50;4.10;;;31.90;99.90;;;;;;5054844;28;20196;-70
2023/08/20 12:01:38;;;;;;;4.57;4.18;;;31.90;99.90;;;;;;5055656;28;20345;-70
2023/08/20 12:04:05;;;;;;;4.50;4.10;;;32.00;99.90;;;;;;5058832;28;20181;-70
2023/08/20 12:06:34;;;;;;;4.00;3.70;;;32.20;99.90;;;;;;5053406;28;20173;-70
2023/08/20 12:09:00;;;;;;;3.88;3.58;;;32.40;99.90;;;;;;5072629;28;20198;-70
2023/08/20 12:11:34;;;;;;;4.20;3.80;;;32.60;99.90;;;;;;5057960;28;20319;-69
2023/08/20 12:14:04;;;;;;;4.25;3.92;;;32.90;99.90;;;;;;5053706;28;20216;-66
2023/08/20 12:16:30;;;;;;;4.43;4.03;;;33.10;99.90;;;;;;5060050;28;20184;-66
2023/08/20 12:18:58;;;;;;;4.65;4.25;;;33.30;99.90;;;;;;5057661;28;20201;-65
2023/08/20 12:21:23;;;;;;;6.65;4.30;;;33.40;99.90;;;;;;5037128;28;20180;-66
2023/08/20 12:23:51;;;;;;;4.80;4.30;;;33.50;99.90;;;;;;5059391;28;20176;-65
2023/08/20 12:26:18;;;;;;;4.65;4.25;;;33.60;99.90;;;;;;5056720;28;20196;-66
2023/08/20 12:28:45;;;;;;;4.18;3.85;;;33.60;99.90;;;;;;5060433;28;20199;-66
2023/08/20 12:31:11;;;;;;;5.43;4.28;;;33.60;99.90;;;;;;5062409;28;20219;-66
2023/08/20 12:33:37;;;;;;;4.35;3.95;;;33.60;99.90;;;;;;5063169;28;20247;-66
2023/08/20 12:36:02;;;;;;;4.65;4.22;;;33.60;99.90;;;;;;5054039;28;20200;-64
2023/08/20 12:38:33;;;;;;;3.75;3.45;;;33.60;99.90;;;;;;5077771;28;20179;-64
2023/08/20 12:41:00;;;;;;;4.40;4.00;;;33.60;99.90;;;;;;5059108;28;20270;-65
2023/08/20 12:43:27;;;;;;;4.00;3.70;;;33.70;99.90;;;;;;5062225;28;20473;-65
2023/08/20 12:45:53;;;;;;;4.15;3.63;;;33.70;99.90;;;;;;5056104;28;20180;-65
2023/08/20 12:48:19;;;;;;;4.20;3.72;;;33.80;99.90;;;;;;5055820;28;20203;-65
2023/08/20 12:50:44;;;;;;;4.47;4.07;;;33.90;99.90;;;;;;5056756;28;20203;-65